createdAt,value
2019-04-29T00:04:17.637Z,8.99
2019-04-29T00:12:02.346Z,9.00
2019-04-29T00:17:51.914Z,8.75
2019-04-29T00:20:40.134Z,8.69
2019-04-29T00:23:09.455Z,8.57
2019-04-29T00:25:38.787Z,8.55
2019-04-29T00:28:08.105Z,8.51
2019-04-29T00:30:37.425Z,8.47
2019-04-29T00:33:06.731Z,8.48
2019-04-29T00:35:55.097Z,8.42
2019-04-29T00:41:51.898Z,8.47
2019-04-29T00:44:40.249Z,8.53
2019-04-29T00:47:09.551Z,8.53
2019-04-29T00:49:38.851Z,8.54
2019-04-29T00:52:08.152Z,8.62
2019-04-29T00:54:56.358Z,8.61
2019-04-29T00:57:25.666Z,8.60
2019-04-29T01:00:33.507Z,8.58
2019-04-29T01:03:21.869Z,8.59
2019-04-29T01:05:51.228Z,8.59
2019-04-29T01:08:20.541Z,8.66
2019-04-29T01:10:49.869Z,8.75
2019-04-29T01:13:19.237Z,8.75
2019-04-29T01:16:07.557Z,8.74
2019-04-29T01:18:36.872Z,8.79
2019-04-29T01:21:06.184Z,8.81
2019-04-29T01:23:35.505Z,8.87
2019-04-29T01:34:27.929Z,8.94
2019-04-29T01:36:57.235Z,8.94
2019-04-29T01:40:05.904Z,8.94
2019-04-29T01:42:38.417Z,8.99
2019-04-29T01:45:07.825Z,8.98
2019-04-29T01:47:37.118Z,8.96
2019-04-29T01:50:45.780Z,8.96
2019-04-29T01:53:15.109Z,8.99
2019-04-29T01:58:32.671Z,9.08
2019-04-29T02:01:02.043Z,9.06
2019-04-29T02:03:31.355Z,9.08
2019-04-29T02:06:00.667Z,9.06
2019-04-29T02:08:29.974Z,9.05
2019-04-29T02:10:59.283Z,8.99
2019-04-29T02:13:28.555Z,8.95
2019-04-29T02:15:57.891Z,8.90
2019-04-29T02:18:27.193Z,8.88
2019-04-29T02:20:56.498Z,8.85
2019-04-29T02:26:17.361Z,8.63
2019-04-29T02:28:46.666Z,8.63
2019-04-29T02:31:34.883Z,8.61
2019-04-29T02:34:04.199Z,8.55
2019-04-29T02:36:52.554Z,8.45
2019-04-29T02:39:40.776Z,8.45
2019-04-29T02:42:28.975Z,8.35
2019-04-29T02:47:37.212Z,8.22
2019-04-29T02:52:56.439Z,8.16
2019-04-29T02:58:30.535Z,8.01
2019-04-29T03:01:18.890Z,7.96
2019-04-29T03:04:07.137Z,7.90
2019-04-29T03:06:36.447Z,7.81
2019-04-29T03:09:45.428Z,7.76
2019-04-29T03:12:14.835Z,7.74
2019-04-29T03:14:44.162Z,7.67
2019-04-29T03:17:18.070Z,7.64
2019-04-29T03:20:03.542Z,7.61
2019-04-29T03:23:12.227Z,7.56
2019-04-29T03:25:41.586Z,7.54
2019-04-29T03:28:10.887Z,7.46
2019-04-29T03:30:40.172Z,7.40
2019-04-29T03:33:09.475Z,7.33
2019-04-29T03:35:38.785Z,7.30
2019-04-29T03:38:08.165Z,7.31
2019-04-29T03:40:37.479Z,7.31
2019-04-29T03:43:06.753Z,7.29
2019-04-29T03:48:24.420Z,7.24
2019-04-29T03:50:53.778Z,7.21
2019-04-29T03:53:42.123Z,7.20
2019-04-29T03:56:11.456Z,7.14
2019-04-29T03:58:40.734Z,7.12
2019-04-29T04:01:28.986Z,7.10
2019-04-29T04:04:17.182Z,7.05
2019-04-29T04:07:05.401Z,7.02
2019-04-29T04:09:35.527Z,7.01
2019-04-29T04:12:04.837Z,6.72
2019-04-29T04:14:34.198Z,7.01
2019-04-29T04:17:22.390Z,7.00
2019-04-29T04:19:51.813Z,6.99
2019-04-29T04:22:21.118Z,7.02
2019-04-29T04:24:52.628Z,7.03
2019-04-29T04:29:56.429Z,7.10
2019-04-29T04:32:25.745Z,7.13
2019-04-29T04:34:55.090Z,7.19
2019-04-29T04:37:24.399Z,7.23
2019-04-29T04:39:53.730Z,7.29
2019-04-29T04:42:23.033Z,7.32
2019-04-29T04:44:52.342Z,7.35
2019-04-29T04:47:21.836Z,7.36
2019-04-29T04:49:51.120Z,7.38
2019-04-29T04:52:20.485Z,7.43
2019-04-29T04:57:26.768Z,7.56
2019-04-29T04:59:56.176Z,7.60
2019-04-29T05:05:02.377Z,7.70
2019-04-29T05:07:31.709Z,7.74
2019-04-29T05:10:01.127Z,7.78
2019-04-29T05:12:30.461Z,7.78
2019-04-29T05:17:34.569Z,7.95
2019-04-29T05:20:03.998Z,8.00
2019-04-29T05:22:33.355Z,8.05
2019-04-29T05:25:02.715Z,8.11
2019-04-29T05:27:32.050Z,8.16
2019-04-29T05:30:01.392Z,8.23
2019-04-29T05:32:30.744Z,8.28
2019-04-29T05:38:09.697Z,8.36
2019-04-29T05:40:58.052Z,8.43
2019-04-29T05:43:46.454Z,8.50
2019-04-29T05:46:34.659Z,8.53
2019-04-29T05:49:07.195Z,8.59
2019-04-29T05:51:57.498Z,8.66
2019-04-29T05:54:26.907Z,8.72
2019-04-29T05:56:56.309Z,8.80
2019-04-29T05:59:25.614Z,8.88
2019-04-29T06:01:54.914Z,8.96
2019-04-29T06:04:43.302Z,9.07
2019-04-29T06:07:16.850Z,9.07
2019-04-29T06:12:32.054Z,9.22
2019-04-29T06:15:01.410Z,9.28
2019-04-29T06:17:31.753Z,9.31
2019-04-29T06:20:22.729Z,9.48
2019-04-29T06:22:51.138Z,9.48
2019-04-29T06:25:20.445Z,9.57
2019-04-29T06:27:49.758Z,9.64
2019-04-29T06:30:19.250Z,9.72
2019-04-29T06:32:48.537Z,9.78
2019-04-29T06:35:17.836Z,9.80
2019-04-29T06:38:06.216Z,9.91
2019-04-29T06:40:36.960Z,10.01
2019-04-29T06:43:06.753Z,10.10
2019-04-29T06:45:36.039Z,10.18
2019-04-29T06:48:05.365Z,10.24
2019-04-29T06:50:34.675Z,10.29
2019-04-29T06:53:04.432Z,10.31
2019-04-29T06:55:35.029Z,10.42
2019-04-29T06:58:04.353Z,10.51
2019-04-29T07:00:33.782Z,10.61
2019-04-29T07:03:03.152Z,10.69
2019-04-29T07:08:07.854Z,10.85
2019-04-29T07:11:01.232Z,10.93
2019-04-29T07:16:21.956Z,11.19
2019-04-29T07:21:41.830Z,11.37
2019-04-29T07:24:11.445Z,11.47
2019-04-29T07:26:40.768Z,11.59
2019-04-29T07:29:10.101Z,11.75
2019-04-29T07:31:39.426Z,11.79
2019-04-29T07:34:48.104Z,11.86
2019-04-29T07:43:13.070Z,12.17
2019-04-29T07:46:03.718Z,12.31
2019-04-29T07:48:32.442Z,12.41
2019-04-29T07:51:04.232Z,12.52
2019-04-29T07:53:40.212Z,12.58
2019-04-29T07:56:06.371Z,12.62
2019-04-29T07:58:35.161Z,12.71
2019-04-29T08:03:39.720Z,12.91
2019-04-29T08:09:15.011Z,13.10
2019-04-29T08:11:44.440Z,13.16
2019-04-29T08:14:13.959Z,13.27
2019-04-29T08:16:43.282Z,13.37
2019-04-29T08:19:12.591Z,13.42
2019-04-29T08:21:45.493Z,13.47
2019-04-29T08:24:15.790Z,13.57
2019-04-29T08:26:47.354Z,13.65
2019-04-29T08:31:51.784Z,13.81
2019-04-29T08:34:23.123Z,13.94
2019-04-29T08:36:52.217Z,14.00
2019-04-29T08:39:25.042Z,14.09
2019-04-29T08:41:52.625Z,14.22
2019-04-29T08:47:23.055Z,14.35
2019-04-29T08:49:52.458Z,14.56
2019-04-29T08:52:21.750Z,14.40
2019-04-29T08:54:55.381Z,14.71
2019-04-29T08:57:22.084Z,14.78
2019-04-29T08:59:51.395Z,14.86
2019-04-29T09:02:33.741Z,14.98
2019-04-29T09:04:53.714Z,14.98
2019-04-29T09:07:23.259Z,15.10
2019-04-29T09:09:56.265Z,15.20
2019-04-29T09:12:29.038Z,15.26
2019-04-29T09:14:55.950Z,15.31
2019-04-29T09:17:25.237Z,15.40
2019-04-29T09:19:54.544Z,15.44
2019-04-29T09:25:32.800Z,15.68
2019-04-29T09:30:54.855Z,15.90
2019-04-29T09:33:24.186Z,16.00
2019-04-29T09:35:53.493Z,16.09
2019-04-29T09:38:22.798Z,16.04
2019-04-29T09:41:11.056Z,16.08
2019-04-29T09:44:04.060Z,16.07
2019-04-29T09:46:49.262Z,16.19
2019-04-29T09:49:18.590Z,16.27
2019-04-29T09:51:47.896Z,16.37
2019-04-29T09:54:36.107Z,16.40
2019-04-29T10:02:59.049Z,16.34
2019-04-29T10:05:47.270Z,16.51
2019-04-29T10:08:16.735Z,16.60
2019-04-29T10:10:46.437Z,16.60
2019-04-29T10:13:15.784Z,16.58
2019-04-29T10:16:04.031Z,16.62
2019-04-29T10:18:52.248Z,16.65
2019-04-29T10:23:56.890Z,16.82
2019-04-29T10:26:26.212Z,16.85
2019-04-29T10:31:48.169Z,16.92
2019-04-29T10:37:46.729Z,17.20
2019-04-29T10:43:53.463Z,17.37
2019-04-29T10:46:39.433Z,17.29
2019-04-29T10:49:27.653Z,17.34
2019-04-29T10:52:17.451Z,17.40
2019-04-29T10:54:51.597Z,17.45
2019-04-29T11:06:00.551Z,17.77
2019-04-29T11:09:04.555Z,17.82
2019-04-29T11:17:05.820Z,18.24
2019-04-29T11:19:39.534Z,18.40
2019-04-29T11:25:19.937Z,18.20
2019-04-29T11:30:41.669Z,18.43
2019-04-29T11:36:19.764Z,18.57
2019-04-29T11:38:49.064Z,18.59
2019-04-29T11:41:19.955Z,18.72
2019-04-29T11:43:51.286Z,18.67
2019-04-29T11:52:07.776Z,18.89
2019-04-29T11:54:18.009Z,18.97
2019-04-29T11:56:46.873Z,19.08
2019-04-29T11:59:35.078Z,19.08
2019-04-29T12:05:14.158Z,19.19
2019-04-29T12:07:43.487Z,19.29
2019-04-29T12:10:12.887Z,19.34
2019-04-29T12:12:43.695Z,19.39
2019-04-29T12:15:32.119Z,19.41
2019-04-29T12:18:20.323Z,19.46
2019-04-29T12:21:08.650Z,19.52
2019-04-29T12:23:37.907Z,19.57
2019-04-29T12:26:26.150Z,19.66
2019-04-29T12:32:15.937Z,19.67
2019-04-29T12:35:04.157Z,19.64
2019-04-29T12:37:52.367Z,19.73
2019-04-29T12:40:40.646Z,19.73
2019-04-29T12:43:28.840Z,19.68
2019-04-29T12:48:52.734Z,19.83
2019-04-29T12:51:22.047Z,19.82
2019-04-29T12:53:51.362Z,19.85
2019-04-29T13:01:58.789Z,19.59
2019-04-29T13:04:49.884Z,19.65
2019-04-29T13:07:36.760Z,19.84
2019-04-29T13:10:32.145Z,19.85
2019-04-29T13:13:01.435Z,19.93
2019-04-29T13:15:49.753Z,20.01
2019-04-29T13:21:24.174Z,19.89
2019-04-29T13:24:12.166Z,20.07
2019-04-29T13:26:28.366Z,20.25
2019-04-29T13:29:01.198Z,20.24
2019-04-29T13:31:38.007Z,20.30
2019-04-29T13:36:37.989Z,20.36
2019-04-29T13:39:39.093Z,20.43
2019-04-29T13:41:58.401Z,20.34
2019-04-29T13:45:05.444Z,20.28
2019-04-29T13:47:37.288Z,20.32
2019-04-29T13:53:01.875Z,20.48
2019-04-29T13:55:47.629Z,20.58
2019-04-29T13:58:13.730Z,20.63
2019-04-29T14:01:02.051Z,20.56
2019-04-29T14:06:14.409Z,20.39
2019-04-29T14:08:43.604Z,20.31
2019-04-29T14:11:12.931Z,20.50
2019-04-29T14:16:30.505Z,20.72
2019-04-29T14:18:59.782Z,20.82
2019-04-29T14:21:30.192Z,20.88
2019-04-29T14:24:00.328Z,20.92
2019-04-29T14:26:29.700Z,20.86
2019-04-29T14:31:34.270Z,20.86
2019-04-29T14:37:19.740Z,21.02
2019-04-29T14:39:53.129Z,21.03
2019-04-29T14:45:23.264Z,21.09
2019-04-29T14:48:11.457Z,21.11
2019-04-29T14:53:19.533Z,21.03
2019-04-29T14:55:48.285Z,20.85
2019-04-29T14:58:17.655Z,20.81
2019-04-29T15:01:06.514Z,20.80
2019-04-29T15:06:42.036Z,20.60
2019-04-29T15:12:52.719Z,20.51
2019-04-29T15:16:03.838Z,20.44
2019-04-29T15:18:48.846Z,20.51
2019-04-29T15:21:34.447Z,20.48
2019-04-29T15:24:03.998Z,20.24
2019-04-29T15:26:52.343Z,20.17
2019-04-29T15:29:21.637Z,20.25
2019-04-29T15:31:50.931Z,20.16
2019-04-29T15:36:54.984Z,20.08
2019-04-29T15:39:25.307Z,20.12
2019-04-29T15:41:55.494Z,20.04
2019-04-29T15:44:26.540Z,20.03
2019-04-29T15:46:57.397Z,20.03
2019-04-29T15:49:26.692Z,20.06
2019-04-29T15:51:55.993Z,20.07
2019-04-29T15:54:26.136Z,20.14
2019-04-29T15:56:56.310Z,20.13
2019-04-29T15:59:25.629Z,20.14
2019-04-29T16:01:59.214Z,20.23
2019-04-29T16:07:38.432Z,20.25
2019-04-29T16:15:41.087Z,20.20
2019-04-29T16:18:14.418Z,20.21
2019-04-29T16:20:41.572Z,20.20
2019-04-29T16:23:10.881Z,20.00
2019-04-29T16:25:40.941Z,20.01
2019-04-29T16:28:11.244Z,20.03
2019-04-29T16:30:40.609Z,19.98
2019-04-29T16:33:13.910Z,20.00
2019-04-29T16:35:43.303Z,19.94
2019-04-29T16:38:13.818Z,19.98
2019-04-29T16:43:39.400Z,19.79
2019-04-29T16:48:58.646Z,19.77
2019-04-29T16:51:27.996Z,19.65
2019-04-29T16:53:57.443Z,19.54
2019-04-29T16:56:45.686Z,19.43
2019-04-29T16:59:15.302Z,19.44
2019-04-29T17:01:44.605Z,19.37
2019-04-29T17:04:13.968Z,19.31
2019-04-29T17:06:52.464Z,19.30
2019-04-29T17:09:33.246Z,19.23
2019-04-29T17:12:02.750Z,19.14
2019-04-29T17:14:32.113Z,19.03
2019-04-29T17:22:35.676Z,18.88
2019-04-29T17:25:02.917Z,18.70
2019-04-29T17:27:51.099Z,18.65
2019-04-29T17:33:49.212Z,18.58
2019-04-29T17:35:14.560Z,18.94
2019-04-29T17:35:19.118Z,19.77
2019-04-29T17:36:11.474Z,18.57
2019-04-29T17:38:40.853Z,18.55
2019-04-29T17:41:10.168Z,18.49
2019-04-29T17:43:58.424Z,18.32
2019-04-29T17:46:46.703Z,18.20
2019-04-29T17:49:34.948Z,18.09
2019-04-29T17:57:52.426Z,17.79
2019-04-29T18:00:43.918Z,17.65
2019-04-29T18:03:36.405Z,17.52
2019-04-29T18:06:24.456Z,17.44
2019-04-29T18:09:10.705Z,17.31
2019-04-29T18:11:50.437Z,17.18
2019-04-29T18:20:08.553Z,16.82
2019-04-29T18:22:54.869Z,16.73
2019-04-29T18:25:31.236Z,16.61
2019-04-29T18:28:00.459Z,16.53
2019-04-29T18:30:35.673Z,16.45
2019-04-29T18:33:02.269Z,16.34
2019-04-29T18:35:31.567Z,16.26
2019-04-29T18:38:19.970Z,16.15
2019-04-29T18:40:49.528Z,16.05
2019-04-29T18:43:39.391Z,15.94
2019-04-29T18:46:12.393Z,15.85
2019-04-29T18:48:40.537Z,15.70
2019-04-29T18:51:09.920Z,15.57
2019-04-29T18:53:39.297Z,15.45
2019-04-29T18:56:08.728Z,15.35
2019-04-29T18:58:38.101Z,15.24
2019-04-29T19:01:07.519Z,15.14
2019-04-29T19:03:55.784Z,15.04
2019-04-29T19:09:01.840Z,14.84
2019-04-29T19:11:32.818Z,14.75
2019-04-29T19:14:02.904Z,14.65
2019-04-29T19:16:32.271Z,14.53
2019-04-29T19:19:01.974Z,14.41
2019-04-29T19:21:32.866Z,14.34
2019-04-29T19:24:02.197Z,14.26
2019-04-29T19:26:31.538Z,14.20
2019-04-29T19:29:01.329Z,14.11
2019-04-29T19:31:36.819Z,14.02
2019-04-29T19:34:02.999Z,13.94
2019-04-29T19:36:32.353Z,13.85
2019-04-29T19:39:01.705Z,13.77
2019-04-29T19:41:31.039Z,13.73
2019-04-29T19:46:48.660Z,13.65
2019-04-29T19:49:17.993Z,13.60
2019-04-29T19:51:47.516Z,13.51
2019-04-29T19:54:23.785Z,13.41
2019-04-29T19:56:47.976Z,13.32
2019-04-29T19:59:18.173Z,13.28
2019-04-29T20:01:51.392Z,13.21
2019-04-29T20:04:38.758Z,13.15
2019-04-29T20:07:10.691Z,13.13
2019-04-29T20:09:41.874Z,13.14
2019-04-29T20:15:02.215Z,13.08
2019-04-29T20:17:50.575Z,13.04
2019-04-29T20:20:39.283Z,13.01
2019-04-29T20:23:08.786Z,12.96
2019-04-29T20:25:38.920Z,12.92
2019-04-29T20:28:16.957Z,12.83
2019-04-29T20:30:40.391Z,12.74
2019-04-29T20:33:12.631Z,12.63
2019-04-29T20:35:45.390Z,12.54
2019-04-29T20:41:00.437Z,12.41
2019-04-29T20:43:31.469Z,12.34
2019-04-29T20:46:02.430Z,12.27
2019-04-29T20:48:32.048Z,12.18
2019-04-29T20:51:11.467Z,12.13
2019-04-29T20:56:12.974Z,12.14
2019-04-29T20:58:44.468Z,12.12
2019-04-29T21:04:09.450Z,12.06
2019-04-29T21:06:51.333Z,12.02
2019-04-29T21:14:37.927Z,11.89
2019-04-29T21:19:59.498Z,11.73
2019-04-29T21:22:28.797Z,11.62
2019-04-29T21:24:58.106Z,11.54
2019-04-29T21:27:27.414Z,11.44
2019-04-29T21:29:56.737Z,11.39
2019-04-29T21:32:26.021Z,11.32
2019-04-29T21:35:18.175Z,11.25
2019-04-29T21:46:02.415Z,11.06
2019-04-29T21:48:33.661Z,11.02
2019-04-29T21:51:06.767Z,10.96
2019-04-29T21:53:36.503Z,10.90
2019-04-29T21:56:09.190Z,10.84
2019-04-29T21:58:35.987Z,10.79
2019-04-29T22:01:44.919Z,10.73
2019-04-29T22:04:14.276Z,10.65
2019-04-29T22:06:43.579Z,10.59
2019-04-29T22:11:53.260Z,10.54
2019-04-29T22:14:22.562Z,10.54
2019-04-29T22:16:54.368Z,10.57
2019-04-29T22:19:26.138Z,10.59
2019-04-29T22:21:59.052Z,10.59
2019-04-29T22:24:26.277Z,10.62
2019-04-29T22:27:03.626Z,10.65
2019-04-29T22:29:27.036Z,10.67
2019-04-29T22:34:31.823Z,10.74
2019-04-29T22:37:01.371Z,10.76
2019-04-29T22:39:49.697Z,10.79
2019-04-29T22:45:07.841Z,10.92
2019-04-29T22:47:37.154Z,10.96
2019-04-29T22:50:47.419Z,10.99
2019-04-29T22:53:16.834Z,11.03
2019-04-29T22:55:46.191Z,11.07
2019-04-29T22:58:15.493Z,11.08
2019-04-29T23:00:44.828Z,11.12
2019-04-29T23:06:06.890Z,11.19
2019-04-29T23:11:21.685Z,11.02
2019-04-29T23:13:50.978Z,11.26
2019-04-29T23:16:20.297Z,11.28
2019-04-29T23:19:09.920Z,11.29
2019-04-29T23:21:58.438Z,11.30
2019-04-29T23:24:51.029Z,11.31
2019-04-29T23:27:19.610Z,11.37
2019-04-29T23:29:48.675Z,11.43
2019-04-29T23:32:17.998Z,11.41
2019-04-29T23:34:47.290Z,11.46
2019-04-29T23:37:19.409Z,11.47
2019-04-29T23:39:47.624Z,11.48
2019-04-29T23:42:16.939Z,11.48
2019-04-29T23:44:46.238Z,11.49
2019-04-29T23:47:35.713Z,11.47
2019-04-29T23:53:06.566Z,11.48
2019-04-29T23:55:35.861Z,11.48
2019-04-29T23:58:24.092Z,11.47
